map of CHQ home
CHQ - Airport
Location
City:  Chania, Krítí (Crete), Greece
Near (Alt.):Khania
Name:Ioannis Daskalogiannis International Airport
Old (Alt.):Souda
ICAO:LGSA
IATA:CHQ

Details
Type:Airport (Aerodrome, Airfield)
Use:Military, International (customs port of entry)
Latitude:35°31'54"N (35.531747)
Longitude:24°08'59"E (24.149678)
Datum:WGS 1984
Elevation:490 ft (149 m)
Variation:4.24°E (WMM2015 magnetic declination)
0.10° annual change
Runways:1
Longest:10982 × 148 ft (3347 × 45 m), paved

Time
Time Zone:UTC+2 (DST+3)
Local Time:

Weather
METAR:LGSA 222320Z 28004KT CAVOK 21/15 Q1016
TAF:LGSA 222300Z 2300/2324 VRB05KT 9999 FEW020
BECMG 2316/2318 27010KT

Related Locations
Nearby:
Farthest:RMT: 11524 mi / 18546 km
Rimatara [Rimatara Airport], PF

Find:

   beyond  
but within

Other Information
Maps:
NOTAMs:
Links:
Sources:

  
flag of Greece   

Airport Diagram

Airport diagram for CHQ

Larger airport diagram (OBSOLETE) from NGA

Sectional Chart

Flight Planning
at skyvector.com

Satellite Image

Google Maps Satellite view

 

Copyright © 2004-2017 Karl L. Swartz. All rights reserved.
The Great Circle Mapper name and logo are trademarks of the Great Circle Mapper.
All other trademarks mentioned herein belong to their respective owners.
Please see credits for attibutions and further copyright information.

  Follow gcmap on Facebook Follow gcmap on Twitter Follow gcmap on Google+ GCmap on LinkedIn

hCard Microformat

Geo Microformat